Time;durP1;ratioP1;P1;durP2;ratioP2;P2;SDS_P1;SDS_P2;PMS_P1;PMS_P2;Temp;Humidity;BMP_temperature;BMP_pressure;BME280_temperature;BME280_humidity;BME280_pressure;Samples;Min_cycle;Max_cycle;Signal;HPM_P1;HPM_P2
2023/06/13 05:28:38;;;;;;;;;;;;;;;14.54;100.00;99874.59;107387;1280;23377;-45
2023/06/13 05:31:06;;;;;;;;;;;;;;;14.55;100.00;99874.40;106851;1280;22501;-43
2023/06/13 05:33:33;;;;;;;;;;;;;;;14.56;100.00;99875.27;108116;1280;22624;-43
2023/06/13 05:36:01;;;;;;;;;;;;;;;14.60;100.00;99873.60;107345;1280;25287;-43
2023/06/13 05:38:28;;;;;;;;;;;;;;;14.66;100.00;99873.28;108583;1280;23153;-49
2023/06/13 05:40:56;;;;;;;;;;;;;;;14.66;100.00;99873.29;108607;1280;23240;-55
2023/06/13 05:43:23;;;;;;;;;;;;;;;14.62;100.00;99872.86;109595;1280;23223;-54
2023/06/13 05:45:51;;;;;;;;;;;;;;;14.61;100.00;99874.96;109997;1279;22457;-54
2023/06/13 05:48:18;;;;;;;;;;;;;;;14.62;100.00;99876.52;109963;1279;22510;-54
2023/06/13 05:50:46;;;;;;;;;;;;;;;14.64;100.00;99876.66;107965;1279;22675;-54
2023/06/13 05:53:13;;;;;;;;;;;;;;;14.64;100.00;99877.72;107901;1279;22511;-51
2023/06/13 05:55:41;;;;;;;;;;;;;;;14.60;100.00;99874.64;107437;1279;25252;-49
2023/06/13 05:58:09;;;;;;;;;;;;;;;14.55;100.00;99875.81;107552;1281;25233;-50
2023/06/13 06:00:37;;;;;;;;;;;;;;;14.49;100.00;99872.79;106854;1281;24222;-49
2023/06/13 06:03:05;;;;;;;;;;;;;;;14.46;100.00;99871.61;107003;1281;24217;-49
2023/06/13 06:05:33;;;;;;;;;;;;;;;14.43;100.00;99871.84;106777;1279;22508;-50
2023/06/13 06:08:00;;;;;;;;;;;;;;;14.44;100.00;99874.27;107151;1280;25200;-49
2023/06/13 06:10:27;;;;;;;;;;;;;;;14.45;100.00;99871.82;109705;1280;22493;-50
2023/06/13 06:12:55;;;;;;;;;;;;;;;14.49;100.00;99870.49;108078;1281;22559;-49
2023/06/13 06:15:22;;;;;;;;;;;;;;;14.59;100.00;99867.46;109332;1279;22477;-49
2023/06/13 06:17:53;;;;;;;;;;;;;;;14.66;100.00;99867.84;109945;1279;22462;-51
2023/06/13 06:20:20;;;;;;;;;;;;;;;14.72;100.00;99868.21;109936;1276;22424;-49
2023/06/13 06:22:48;;;;;;;;;;;;;;;14.80;100.00;99866.81;109575;1280;22445;-50
2023/06/13 06:25:19;;;;;;;;;;;;;;;14.86;100.00;99866.66;109940;1279;22434;-50
2023/06/13 06:27:50;;;;;;;;;;;;;;;14.91;100.00;99871.98;109568;1280;22500;-49
2023/06/13 06:30:17;;;;;;;;;;;;;;;14.96;100.00;99875.19;109921;1279;22433;-50
2023/06/13 06:32:45;;;;;;;;;;;;;;;14.99;100.00;99877.58;108805;1280;23323;-49
2023/06/13 06:35:14;;;;;;;;;;;;;;;15.04;100.00;99876.94;109069;1280;22524;-50
2023/06/13 06:37:43;;;;;;;;;;;;;;;15.05;100.00;99871.61;109936;1279;22406;-49
2023/06/13 06:40:11;;;;;;;;;;;;;;;15.09;100.00;99873.30;109931;1279;22422;-49
2023/06/13 06:42:39;;;;;;;;;;;;;;;15.12;100.00;99877.41;109017;1273;23259;-50
2023/06/13 06:45:10;;;;;;;;;;;;;;;15.11;100.00;99877.24;109857;1273;22452;-50
2023/06/13 06:47:38;;;;;;;;;;;;;;;15.14;100.00;99880.17;109904;1274;23133;-50
2023/06/13 06:50:06;;;;;;;;;;;;;;;15.14;100.00;99881.06;109829;1280;23546;-50
2023/06/13 06:52:34;;;;;;;;;;;;;;;15.12;100.00;99881.99;109113;1273;25296;-58
2023/06/13 06:55:02;;;;;;;;;;;;;;;15.09;100.00;99883.14;109801;1280;23024;-54
2023/06/13 06:57:29;;;;;;;;;;;;;;;15.09;100.00;99883.66;109909;1276;22433;-55
2023/06/13 06:59:57;;;;;;;;;;;;;;;15.15;100.00;99886.30;109930;1280;22449;-53
2023/06/13 07:02:24;;;;;;;;;;;;;;;15.20;100.00;99884.07;109884;1278;22440;-55
2023/06/13 07:04:52;;;;;;;;;;;;;;;15.28;100.00;99888.09;109810;1280;22446;-54
2023/06/13 07:07:19;;;;;;;;;;;;;;;15.36;100.00;99888.77;108961;1279;22577;-54
2023/06/13 07:09:47;;;;;;;;;;;;;;;15.42;100.00;99884.91;109798;1273;23180;-54
2023/06/13 07:12:14;;;;;;;;;;;;;;;15.45;100.00;99884.48;109446;1273;22503;-54
2023/06/13 07:14:42;;;;;;;;;;;;;;;15.51;100.00;99879.77;109209;1276;23289;-55
2023/06/13 07:17:09;;;;;;;;;;;;;;;15.58;100.00;99884.85;109324;1275;22879;-54
2023/06/13 07:19:37;;;;;;;;;;;;;;;15.62;100.00;99883.86;109876;1276;22457;-54
2023/06/13 07:22:04;;;;;;;;;;;;;;;15.66;100.00;99886.05;108859;1279;22592;-54
2023/06/13 07:24:33;;;;;;;;;;;;;;;15.72;100.00;99887.30;108854;1279;22534;-54
2023/06/13 07:27:00;;;;;;;;;;;;;;;15.78;100.00;99888.00;109854;1280;22961;-54
2023/06/13 07:29:27;;;;;;;;;;;;;;;15.86;100.00;99889.73;109909;1279;23170;-53
2023/06/13 07:31:55;;;;;;;;;;;;;;;15.87;100.00;99888.46;109858;1280;22448;-55
2023/06/13 07:34:22;;;;;;;;;;;;;;;15.89;100.00;99890.17;109819;1278;22429;-55
2023/06/13 07:36:56;;;;;;;;;;;;;;;15.94;100.00;99895.31;109861;1278;22445;-55
2023/06/13 07:39:23;;;;;;;;;;;;;;;15.98;100.00;99899.60;109336;1276;22522;-54
2023/06/13 07:41:51;;;;;;;;;;;;;;;16.00;100.00;99902.16;109860;1276;22441;-55
2023/06/13 07:44:18;;;;;;;;;;;;;;;16.03;100.00;99905.43;109829;1273;22481;-55
2023/06/13 07:46:47;;;;;;;;;;;;;;;16.04;100.00;99902.75;109790;1279;23024;-55
2023/06/13 07:49:15;;;;;;;;;;;;;;;16.03;100.00;99904.19;109849;1275;23092;-53
2023/06/13 07:51:43;;;;;;;;;;;;;;;16.05;100.00;99902.72;108717;1278;22572;-55
2023/06/13 07:54:11;;;;;;;;;;;;;;;16.00;100.00;99900.77;108526;1278;22488;-54
2023/06/13 07:56:38;;;;;;;;;;;;;;;15.91;100.00;99904.71;108560;1280;24229;-54
2023/06/13 07:59:06;;;;;;;;;;;;;;;15.85;100.00;99907.53;109256;1276;22578;-53
2023/06/13 08:01:34;;;;;;;;;;;;;;;15.83;100.00;99906.52;109487;1276;23859;-53
2023/06/13 08:04:02;;;;;;;;;;;;;;;15.79;100.00;99905.93;109067;1272;22592;-55
2023/06/13 08:06:30;;;;;;;;;;;;;;;15.77;100.00;99906.67;108470;1275;23233;-55
2023/06/13 08:08:58;;;;;;;;;;;;;;;15.80;100.00;99908.54;109858;1280;22880;-55
2023/06/13 08:11:25;;;;;;;;;;;;;;;15.78;100.00;99910.52;109425;1279;26460;-56
2023/06/13 08:13:53;;;;;;;;;;;;;;;15.80;100.00;99907.84;109896;1275;23574;-50
2023/06/13 08:16:21;;;;;;;;;;;;;;;15.80;100.00;99909.75;109670;1280;22479;-49
2023/06/13 08:18:49;;;;;;;;;;;;;;;15.75;100.00;99906.05;109151;1278;22510;-48
2023/06/13 08:21:17;;;;;;;;;;;;;;;15.71;100.00;99906.49;109706;1275;22459;-47
2023/06/13 08:23:44;;;;;;;;;;;;;;;15.66;100.00;99901.02;109577;1280;23084;-47
2023/06/13 08:26:12;;;;;;;;;;;;;;;15.65;100.00;99901.38;109726;1273;22440;-47
2023/06/13 08:28:41;;;;;;;;;;;;;;;15.65;100.00;99902.08;108257;1280;22533;-47
2023/06/13 08:31:08;;;;;;;;;;;;;;;15.68;100.00;99905.50;109783;1275;22891;-47
2023/06/13 08:33:40;;;;;;;;;;;;;;;15.70;100.00;99907.58;109268;1273;22537;-49
2023/06/13 08:36:21;;;;;;;;;;;;;;;15.76;100.00;99908.48;109792;1273;23008;-49
2023/06/13 08:38:59;;;;;;;;;;;;;;;15.82;100.00;99914.64;109826;1276;23221;-49
2023/06/13 08:41:26;;;;;;;;;;;;;;;15.87;100.00;99918.19;109832;1278;23656;-49
2023/06/13 08:43:54;;;;;;;;;;;;;;;15.92;100.00;99917.14;109205;1280;22562;-49
2023/06/13 08:46:24;;;;;;;;;;;;;;;16.00;100.00;99922.77;109908;1280;23178;-49
2023/06/13 08:48:52;;;;;;;;;;;;;;;16.04;100.00;99924.56;109797;1275;22444;-49
2023/06/13 08:51:21;;;;;;;;;;;;;;;16.07;100.00;99925.91;109768;1279;22464;-49
2023/06/13 08:53:49;;;;;;;;;;;;;;;16.08;100.00;99926.95;109859;1280;22440;-49
2023/06/13 08:56:16;;;;;;;;;;;;;;;16.11;100.00;99926.13;109051;1275;23071;-46
2023/06/13 08:58:44;;;;;;;;;;;;;;;16.18;100.00;99929.09;109807;1279;22472;-46
2023/06/13 09:01:12;;;;;;;;;;;;;;;16.27;100.00;99926.55;109816;1279;22774;-46
2023/06/13 09:03:40;;;;;;;;;;;;;;;16.38;100.00;99928.36;109508;1279;22496;-46
2023/06/13 09:06:08;;;;;;;;;;;;;;;16.44;100.00;99926.75;109722;1276;23037;-47
2023/06/13 09:08:35;;;;;;;;;;;;;;;16.49;100.00;99930.48;109287;1280;22493;-47
2023/06/13 09:11:03;;;;;;;;;;;;;;;16.44;100.00;99925.17;109744;1280;22791;-49
2023/06/13 09:13:31;;;;;;;;;;;;;;;16.38;100.00;99923.05;109802;1280;22450;-45
2023/06/13 09:15:58;;;;;;;;;;;;;;;16.37;100.00;99924.14;109747;1279;22534;-49
2023/06/13 09:18:26;;;;;;;;;;;;;;;16.38;100.00;99920.44;109879;1279;22417;-50
2023/06/13 09:20:54;;;;;;;;;;;;;;;16.39;100.00;99917.39;109871;1280;23188;-48
2023/06/13 09:23:21;;;;;;;;;;;;;;;16.44;100.00;99916.90;109822;1280;22914;-47
2023/06/13 09:25:49;;;;;;;;;;;;;;;16.58;100.00;99910.48;109777;1279;22442;-48
2023/06/13 09:28:49;;;;;;;;;;;;;;;16.73;100.00;99910.75;109846;1275;23446;-47
2023/06/13 09:31:17;;;;;;;;;;;;;;;16.79;100.00;99908.83;109220;1288;23206;-47
2023/06/13 09:33:45;;;;;;;;;;;;;;;16.83;100.00;99910.45;109151;1288;23028;-48
2023/06/13 09:36:12;;;;;;;;;;;;;;;16.86;100.00;99911.75;109306;1284;22488;-50
2023/06/13 09:38:41;;;;;;;;;;;;;;;16.83;100.00;99906.22;109310;1284;22567;-47
2023/06/13 09:41:10;;;;;;;;;;;;;;;16.87;100.00;99907.85;108600;1284;22563;-48
2023/06/13 09:43:38;;;;;;;;;;;;;;;16.94;100.00;99907.99;108530;1288;22584;-49
2023/06/13 09:46:06;;;;;;;;;;;;;;;17.02;100.00;99911.93;109279;1282;23434;-49
2023/06/13 09:48:34;;;;;;;;;;;;;;;17.10;100.00;99907.11;109236;1287;22511;-47
2023/06/13 09:51:09;;;;;;;;;;;;;;;17.13;100.00;99912.46;109267;1284;22432;-49
2023/06/13 09:53:36;;;;;;;;;;;;;;;17.22;100.00;99917.64;109361;1287;22460;-50
2023/06/13 09:56:07;;;;;;;;;;;;;;;17.34;100.00;99918.48;109382;1288;22537;-47
2023/06/13 09:58:35;;;;;;;;;;;;;;;17.46;100.00;99915.04;109305;1289;22459;-50
2023/06/13 10:01:06;;;;;;;;;;;;;;;17.60;100.00;99917.39;109394;1286;22470;-46
2023/06/13 10:03:33;;;;;;;;;;;;;;;17.68;100.00;99914.11;109322;1288;22461;-47
2023/06/13 10:06:01;;;;;;;;;;;;;;;17.77;100.00;99914.02;109135;1284;22559;-47
2023/06/13 10:08:28;;;;;;;;;;;;;;;17.89;100.00;99915.36;109626;1280;22428;-47
2023/06/13 10:10:56;;;;;;;;;;;;;;;18.00;100.00;99914.05;109883;1279;22428;-45
2023/06/13 10:13:26;;;;;;;;;;;;;;;18.12;100.00;99912.91;109794;1279;22468;-48
2023/06/13 10:16:03;;;;;;;;;;;;;;;18.22;100.00;99908.34;109776;1280;22451;-48
2023/06/13 10:18:37;;;;;;;;;;;;;;;18.26;100.00;99907.80;109773;1279;23422;-49
2023/06/13 10:21:06;;;;;;;;;;;;;;;18.34;100.00;99905.38;109866;1280;22456;-47
2023/06/13 10:23:35;;;;;;;;;;;;;;;18.39;100.00;99899.02;109753;1281;23567;-48
2023/06/13 10:26:06;;;;;;;;;;;;;;;18.49;100.00;99896.86;109736;1281;22522;-48
2023/06/13 10:28:53;;;;;;;;;;;;;;;18.61;100.00;99899.23;109641;1280;22447;-47
2023/06/13 10:31:29;;;;;;;;;;;;;;;18.70;99.72;99899.06;109714;1281;22447;-47
2023/06/13 10:34:03;;;;;;;;;;;;;;;18.75;98.78;99895.88;109783;1278;22464;-46
2023/06/13 10:36:31;;;;;;;;;;;;;;;18.77;98.11;99896.48;109823;1281;22422;-46
2023/06/13 10:39:09;;;;;;;;;;;;;;;18.77;97.85;99893.69;109834;1276;22504;-46
2023/06/13 10:41:56;;;;;;;;;;;;;;;18.75;98.13;99894.13;109842;1281;23130;-47
2023/06/13 10:44:26;;;;;;;;;;;;;;;18.77;97.79;99892.42;107991;1277;23229;-46
2023/06/13 10:46:53;;;;;;;;;;;;;;;18.75;97.77;99896.23;109858;1280;23388;-46
2023/06/13 10:49:21;;;;;;;;;;;;;;;18.75;97.79;99894.28;109426;1281;23105;-48
2023/06/13 10:51:49;;;;;;;;;;;;;;;18.77;97.66;99894.17;109860;1281;22411;-45
2023/06/13 10:54:17;;;;;;;;;;;;;;;18.74;96.96;99893.61;109308;1281;23474;-48
2023/06/13 10:56:45;;;;;;;;;;;;;;;18.72;97.01;99893.86;109850;1281;22440;-46
2023/06/13 10:59:16;;;;;;;;;;;;;;;18.73;97.15;99895.25;109815;1281;23126;-46
2023/06/13 11:01:44;;;;;;;;;;;;;;;18.66;97.07;99894.61;109899;1273;22425;-46
2023/06/13 11:04:12;;;;;;;;;;;;;;;18.58;97.54;99898.98;109804;1279;23229;-48
2023/06/13 11:06:44;;;;;;;;;;;;;;;18.55;98.03;99895.56;109870;1281;22484;-48
2023/06/13 11:09:21;;;;;;;;;;;;;;;18.51;97.94;99902.23;109908;1277;22455;-46
2023/06/13 11:11:50;;;;;;;;;;;;;;;18.49;98.38;99900.20;109818;1278;22455;-46
2023/06/13 11:14:41;;;;;;;;;;;;;;;18.48;98.64;99901.85;108520;1279;22500;-47
2023/06/13 11:17:08;;;;;;;;;;;;;;;18.46;98.95;99902.63;109804;1281;22475;-48
2023/06/13 11:19:36;;;;;;;;;;;;;;;18.42;98.79;99902.98;109912;1279;22448;-46
2023/06/13 11:22:03;;;;;;;;;;;;;;;18.36;99.11;99906.55;109903;1281;22553;-46
2023/06/13 11:24:31;;;;;;;;;;;;;;;18.32;99.46;99910.39;109876;1281;22459;-49
2023/06/13 11:27:03;;;;;;;;;;;;;;;18.33;100.00;99907.21;109814;1279;22489;-48
2023/06/13 11:29:32;;;;;;;;;;;;;;;18.35;100.00;99909.59;109844;1278;23277;-48
2023/06/13 11:32:02;;;;;;;;;;;;;;;18.37;100.00;99911.63;109833;1277;23222;-47
2023/06/13 11:34:33;;;;;;;;;;;;;;;18.34;100.00;99912.27;109895;1274;22462;-48
2023/06/13 11:37:02;;;;;;;;;;;;;;;18.30;100.00;99908.71;109872;1273;22453;-48
2023/06/13 11:39:36;;;;;;;;;;;;;;;18.30;100.00;99906.93;109868;1280;22473;-48
2023/06/13 11:42:08;;;;;;;;;;;;;;;18.32;100.00;99904.92;109737;1280;153193;-46
2023/06/13 11:44:35;;;;;;;;;;;;;;;18.31;100.00;99906.17;109825;1280;23115;-48
2023/06/13 11:47:03;;;;;;;;;;;;;;;18.30;100.00;99903.04;109924;1280;22525;-48
